sensor_id;sensor_type;location;lat;lon;timestamp;P1;durP1;ratioP1;P2;durP2;ratioP2
28934;SDS011;16044;52.726;-2.108;2023-05-02T00:01:11;14.88;;;9.88;;
28934;SDS011;16044;52.726;-2.108;2023-05-02T00:11:46;13.02;;;9.80;;
28934;SDS011;16044;52.726;-2.108;2023-05-02T00:18:43;16.40;;;11.07;;
28934;SDS011;16044;52.726;-2.108;2023-05-02T00:25:13;12.77;;;10.50;;
28934;SDS011;16044;52.726;-2.108;2023-05-02T00:31:39;16.23;;;10.95;;
28934;SDS011;16044;52.726;-2.108;2023-05-02T00:38:00;16.55;;;11.45;;
28934;SDS011;16044;52.726;-2.108;2023-05-02T00:48:26;12.90;;;10.73;;
28934;SDS011;16044;52.726;-2.108;2023-05-02T00:54:54;10.90;;;9.02;;
28934;SDS011;16044;52.726;-2.108;2023-05-02T01:13:18;17.63;;;12.48;;
28934;SDS011;16044;52.726;-2.108;2023-05-02T01:20:15;14.27;;;10.43;;
28934;SDS011;16044;52.726;-2.108;2023-05-02T01:31:42;12.57;;;10.13;;
28934;SDS011;16044;52.726;-2.108;2023-05-02T01:42:27;12.15;;;8.93;;
28934;SDS011;16044;52.726;-2.108;2023-05-02T01:52:47;13.73;;;8.60;;
28934;SDS011;16044;52.726;-2.108;2023-05-02T01:59:43;11.90;;;8.93;;
28934;SDS011;16044;52.726;-2.108;2023-05-02T02:06:16;13.68;;;8.95;;
28934;SDS011;16044;52.726;-2.108;2023-05-02T02:17:37;12.57;;;9.38;;
28934;SDS011;16044;52.726;-2.108;2023-05-02T02:20:00;13.38;;;9.40;;
28934;SDS011;16044;52.726;-2.108;2023-05-02T02:34:16;15.77;;;10.38;;
28934;SDS011;16044;52.726;-2.108;2023-05-02T02:40:41;20.60;;;12.25;;
28934;SDS011;16044;52.726;-2.108;2023-05-02T02:47:23;21.20;;;12.77;;
28934;SDS011;16044;52.726;-2.108;2023-05-02T03:02:08;18.10;;;13.45;;
28934;SDS011;16044;52.726;-2.108;2023-05-02T03:08:46;32.05;;;15.70;;
28934;SDS011;16044;52.726;-2.108;2023-05-02T03:26:26;35.78;;;18.60;;
28934;SDS011;16044;52.726;-2.108;2023-05-02T03:32:36;35.80;;;19.98;;
28934;SDS011;16044;52.726;-2.108;2023-05-02T03:38:59;41.83;;;22.08;;
28934;SDS011;16044;52.726;-2.108;2023-05-02T03:45:25;36.35;;;20.15;;
28934;SDS011;16044;52.726;-2.108;2023-05-02T03:52:05;32.40;;;17.73;;
28934;SDS011;16044;52.726;-2.108;2023-05-02T03:58:52;34.03;;;16.90;;
28934;SDS011;16044;52.726;-2.108;2023-05-02T04:05:20;33.92;;;15.27;;
28934;SDS011;16044;52.726;-2.108;2023-05-02T04:11:39;27.98;;;15.13;;
28934;SDS011;16044;52.726;-2.108;2023-05-02T04:17:58;29.88;;;14.02;;
28934;SDS011;16044;52.726;-2.108;2023-05-02T04:20:32;31.13;;;14.25;;
28934;SDS011;16044;52.726;-2.108;2023-05-02T04:22:59;36.13;;;14.88;;
28934;SDS011;16044;52.726;-2.108;2023-05-02T04:29:25;37.40;;;14.35;;
28934;SDS011;16044;52.726;-2.108;2023-05-02T04:35:51;34.95;;;13.45;;
28934;SDS011;16044;52.726;-2.108;2023-05-02T04:46:23;31.73;;;11.68;;
28934;SDS011;16044;52.726;-2.108;2023-05-02T04:53:38;24.38;;;11.13;;
28934;SDS011;16044;52.726;-2.108;2023-05-02T05:00:02;27.73;;;11.18;;
28934;SDS011;16044;52.726;-2.108;2023-05-02T05:06:43;23.77;;;11.95;;
28934;SDS011;16044;52.726;-2.108;2023-05-02T05:13:18;28.92;;;12.73;;
28934;SDS011;16044;52.726;-2.108;2023-05-02T05:23:04;32.83;;;14.10;;
28934;SDS011;16044;52.726;-2.108;2023-05-02T05:25:30;31.17;;;13.52;;
28934;SDS011;16044;52.726;-2.108;2023-05-02T05:28:00;30.00;;;15.05;;
28934;SDS011;16044;52.726;-2.108;2023-05-02T05:30:27;26.02;;;13.00;;
28934;SDS011;16044;52.726;-2.108;2023-05-02T05:32:56;23.23;;;13.38;;
28934;SDS011;16044;52.726;-2.108;2023-05-02T05:35:26;31.80;;;13.60;;
28934;SDS011;16044;52.726;-2.108;2023-05-02T05:37:53;35.63;;;14.50;;
28934;SDS011;16044;52.726;-2.108;2023-05-02T05:40:20;31.35;;;14.68;;
28934;SDS011;16044;52.726;-2.108;2023-05-02T05:42:47;29.35;;;15.07;;
28934;SDS011;16044;52.726;-2.108;2023-05-02T05:45:14;28.85;;;14.52;;
28934;SDS011;16044;52.726;-2.108;2023-05-02T05:47:42;33.00;;;14.73;;
28934;SDS011;16044;52.726;-2.108;2023-05-02T05:50:09;31.30;;;14.23;;
28934;SDS011;16044;52.726;-2.108;2023-05-02T05:52:36;27.95;;;14.93;;
28934;SDS011;16044;52.726;-2.108;2023-05-02T05:55:03;31.23;;;14.43;;
28934;SDS011;16044;52.726;-2.108;2023-05-02T05:57:32;24.55;;;14.23;;
28934;SDS011;16044;52.726;-2.108;2023-05-02T05:59:59;25.77;;;14.30;;
28934;SDS011;16044;52.726;-2.108;2023-05-02T06:02:26;26.73;;;14.40;;
28934;SDS011;16044;52.726;-2.108;2023-05-02T06:04:53;26.23;;;14.63;;
28934;SDS011;16044;52.726;-2.108;2023-05-02T06:07:20;25.65;;;14.52;;
28934;SDS011;16044;52.726;-2.108;2023-05-02T06:09:47;22.55;;;13.20;;
28934;SDS011;16044;52.726;-2.108;2023-05-02T06:12:14;24.55;;;13.45;;
28934;SDS011;16044;52.726;-2.108;2023-05-02T06:14:41;23.20;;;11.80;;
28934;SDS011;16044;52.726;-2.108;2023-05-02T06:17:08;20.80;;;11.27;;
28934;SDS011;16044;52.726;-2.108;2023-05-02T06:19:35;19.52;;;10.32;;
28934;SDS011;16044;52.726;-2.108;2023-05-02T06:22:02;22.63;;;9.93;;
28934;SDS011;16044;52.726;-2.108;2023-05-02T06:24:29;19.33;;;8.38;;
28934;SDS011;16044;52.726;-2.108;2023-05-02T06:26:57;21.02;;;8.70;;
28934;SDS011;16044;52.726;-2.108;2023-05-02T06:29:24;14.40;;;7.93;;
28934;SDS011;16044;52.726;-2.108;2023-05-02T06:31:53;17.90;;;8.38;;
28934;SDS011;16044;52.726;-2.108;2023-05-02T06:34:22;17.65;;;8.00;;
28934;SDS011;16044;52.726;-2.108;2023-05-02T06:36:52;19.20;;;8.43;;
28934;SDS011;16044;52.726;-2.108;2023-05-02T06:39:21;17.33;;;7.35;;
28934;SDS011;16044;52.726;-2.108;2023-05-02T06:41:48;18.90;;;8.05;;
28934;SDS011;16044;52.726;-2.108;2023-05-02T06:44:15;17.05;;;8.32;;
28934;SDS011;16044;52.726;-2.108;2023-05-02T06:46:42;17.23;;;8.48;;
28934;SDS011;16044;52.726;-2.108;2023-05-02T06:49:10;16.60;;;7.85;;
28934;SDS011;16044;52.726;-2.108;2023-05-02T06:51:37;18.67;;;8.65;;
28934;SDS011;16044;52.726;-2.108;2023-05-02T06:54:04;18.02;;;7.93;;
28934;SDS011;16044;52.726;-2.108;2023-05-02T06:56:31;17.08;;;6.82;;
28934;SDS011;16044;52.726;-2.108;2023-05-02T06:58:58;20.98;;;7.65;;
28934;SDS011;16044;52.726;-2.108;2023-05-02T07:01:25;17.30;;;7.47;;
28934;SDS011;16044;52.726;-2.108;2023-05-02T07:03:52;17.33;;;7.57;;
28934;SDS011;16044;52.726;-2.108;2023-05-02T07:06:19;17.85;;;7.78;;
28934;SDS011;16044;52.726;-2.108;2023-05-02T07:08:47;14.75;;;8.15;;
28934;SDS011;16044;52.726;-2.108;2023-05-02T07:11:14;12.27;;;7.38;;
28934;SDS011;16044;52.726;-2.108;2023-05-02T07:13:41;19.70;;;7.40;;
28934;SDS011;16044;52.726;-2.108;2023-05-02T07:16:08;12.68;;;6.88;;
28934;SDS011;16044;52.726;-2.108;2023-05-02T07:18:35;16.80;;;7.20;;
28934;SDS011;16044;52.726;-2.108;2023-05-02T07:21:02;14.88;;;6.82;;
28934;SDS011;16044;52.726;-2.108;2023-05-02T07:23:29;14.13;;;6.93;;
28934;SDS011;16044;52.726;-2.108;2023-05-02T07:25:56;15.40;;;6.43;;
28934;SDS011;16044;52.726;-2.108;2023-05-02T07:28:23;15.52;;;6.72;;
28934;SDS011;16044;52.726;-2.108;2023-05-02T07:30:51;13.73;;;6.45;;
28934;SDS011;16044;52.726;-2.108;2023-05-02T07:33:18;15.73;;;7.05;;
28934;SDS011;16044;52.726;-2.108;2023-05-02T07:35:45;14.98;;;6.82;;
28934;SDS011;16044;52.726;-2.108;2023-05-02T07:38:12;15.82;;;6.97;;
28934;SDS011;16044;52.726;-2.108;2023-05-02T07:40:39;17.08;;;6.10;;
28934;SDS011;16044;52.726;-2.108;2023-05-02T07:43:06;19.05;;;7.15;;
28934;SDS011;16044;52.726;-2.108;2023-05-02T07:45:36;18.85;;;7.07;;
28934;SDS011;16044;52.726;-2.108;2023-05-02T07:48:03;15.68;;;6.18;;
28934;SDS011;16044;52.726;-2.108;2023-05-02T07:50:30;15.48;;;6.72;;
28934;SDS011;16044;52.726;-2.108;2023-05-02T07:52:57;16.33;;;7.00;;
28934;SDS011;16044;52.726;-2.108;2023-05-02T07:55:24;14.60;;;6.40;;
28934;SDS011;16044;52.726;-2.108;2023-05-02T07:57:52;17.58;;;6.32;;
28934;SDS011;16044;52.726;-2.108;2023-05-02T08:00:19;18.25;;;6.57;;
28934;SDS011;16044;52.726;-2.108;2023-05-02T08:02:46;14.43;;;5.97;;
28934;SDS011;16044;52.726;-2.108;2023-05-02T08:05:13;11.57;;;4.82;;
28934;SDS011;16044;52.726;-2.108;2023-05-02T08:07:40;16.83;;;5.38;;
28934;SDS011;16044;52.726;-2.108;2023-05-02T08:10:08;11.90;;;5.30;;
28934;SDS011;16044;52.726;-2.108;2023-05-02T08:12:39;13.63;;;5.88;;
28934;SDS011;16044;52.726;-2.108;2023-05-02T08:15:07;11.88;;;5.50;;
28934;SDS011;16044;52.726;-2.108;2023-05-02T08:17:39;9.70;;;4.82;;
28934;SDS011;16044;52.726;-2.108;2023-05-02T08:20:06;12.90;;;5.43;;
28934;SDS011;16044;52.726;-2.108;2023-05-02T08:22:33;12.25;;;4.90;;
28934;SDS011;16044;52.726;-2.108;2023-05-02T08:25:00;12.75;;;4.93;;
28934;SDS011;16044;52.726;-2.108;2023-05-02T08:27:27;13.88;;;5.47;;
28934;SDS011;16044;52.726;-2.108;2023-05-02T08:29:54;9.95;;;4.93;;
28934;SDS011;16044;52.726;-2.108;2023-05-02T08:32:24;10.60;;;5.18;;
28934;SDS011;16044;52.726;-2.108;2023-05-02T08:34:55;10.55;;;4.93;;
28934;SDS011;16044;52.726;-2.108;2023-05-02T08:37:22;15.02;;;4.68;;
28934;SDS011;16044;52.726;-2.108;2023-05-02T08:39:49;11.68;;;4.53;;
28934;SDS011;16044;52.726;-2.108;2023-05-02T08:42:16;8.70;;;3.63;;
28934;SDS011;16044;52.726;-2.108;2023-05-02T08:44:43;6.90;;;3.40;;
28934;SDS011;16044;52.726;-2.108;2023-05-02T08:47:10;13.43;;;3.95;;
28934;SDS011;16044;52.726;-2.108;2023-05-02T08:49:40;8.77;;;3.50;;
28934;SDS011;16044;52.726;-2.108;2023-05-02T08:52:08;8.82;;;2.95;;
28934;SDS011;16044;52.726;-2.108;2023-05-02T08:54:37;11.82;;;3.22;;
28934;SDS011;16044;52.726;-2.108;2023-05-02T08:57:04;8.68;;;3.08;;
28934;SDS011;16044;52.726;-2.108;2023-05-02T08:59:32;10.38;;;3.38;;
28934;SDS011;16044;52.726;-2.108;2023-05-02T09:02:14;7.88;;;2.65;;
28934;SDS011;16044;52.726;-2.108;2023-05-02T09:04:54;10.13;;;3.80;;
28934;SDS011;16044;52.726;-2.108;2023-05-02T09:07:43;9.85;;;3.30;;
28934;SDS011;16044;52.726;-2.108;2023-05-02T09:10:13;10.68;;;3.25;;
28934;SDS011;16044;52.726;-2.108;2023-05-02T09:12:40;7.03;;;3.00;;
28934;SDS011;16044;52.726;-2.108;2023-05-02T09:15:14;8.00;;;3.17;;
28934;SDS011;16044;52.726;-2.108;2023-05-02T09:17:46;9.05;;;3.30;;
28934;SDS011;16044;52.726;-2.108;2023-05-02T09:20:14;12.85;;;3.20;;
28934;SDS011;16044;52.726;-2.108;2023-05-02T09:22:49;8.70;;;3.20;;
28934;SDS011;16044;52.726;-2.108;2023-05-02T09:25:18;10.43;;;3.15;;
28934;SDS011;16044;52.726;-2.108;2023-05-02T09:27:49;10.45;;;3.17;;
28934;SDS011;16044;52.726;-2.108;2023-05-02T09:30:22;8.20;;;2.70;;
28934;SDS011;16044;52.726;-2.108;2023-05-02T09:32:52;8.90;;;2.92;;
28934;SDS011;16044;52.726;-2.108;2023-05-02T09:35:21;9.43;;;2.60;;
28934;SDS011;16044;52.726;-2.108;2023-05-02T09:37:56;9.38;;;2.90;;
28934;SDS011;16044;52.726;-2.108;2023-05-02T09:40:23;11.45;;;2.58;;
28934;SDS011;16044;52.726;-2.108;2023-05-02T09:42:51;11.00;;;2.92;;
28934;SDS011;16044;52.726;-2.108;2023-05-02T09:45:18;10.25;;;3.45;;
28934;SDS011;16044;52.726;-2.108;2023-05-02T09:47:50;10.25;;;2.75;;
28934;SDS011;16044;52.726;-2.108;2023-05-02T09:50:31;10.93;;;2.78;;
28934;SDS011;16044;52.726;-2.108;2023-05-02T09:53:04;9.27;;;2.65;;
28934;SDS011;16044;52.726;-2.108;2023-05-02T09:55:34;7.65;;;2.50;;
28934;SDS011;16044;52.726;-2.108;2023-05-02T09:58:01;8.63;;;2.70;;
28934;SDS011;16044;52.726;-2.108;2023-05-02T10:03:09;9.15;;;2.60;;
28934;SDS011;16044;52.726;-2.108;2023-05-02T10:05:38;8.80;;;2.40;;
28934;SDS011;16044;52.726;-2.108;2023-05-02T10:08:06;9.20;;;2.78;;
28934;SDS011;16044;52.726;-2.108;2023-05-02T10:10:36;11.38;;;2.63;;
28934;SDS011;16044;52.726;-2.108;2023-05-02T10:13:07;8.77;;;2.58;;
28934;SDS011;16044;52.726;-2.108;2023-05-02T10:15:39;7.75;;;2.70;;
28934;SDS011;16044;52.726;-2.108;2023-05-02T10:18:13;10.60;;;2.85;;
28934;SDS011;16044;52.726;-2.108;2023-05-02T10:21:09;8.38;;;2.88;;
28934;SDS011;16044;52.726;-2.108;2023-05-02T10:23:42;10.80;;;2.67;;
28934;SDS011;16044;52.726;-2.108;2023-05-02T10:26:11;8.95;;;2.38;;
28934;SDS011;16044;52.726;-2.108;2023-05-02T10:28:41;7.20;;;2.60;;
28934;SDS011;16044;52.726;-2.108;2023-05-02T10:31:09;8.23;;;2.45;;
28934;SDS011;16044;52.726;-2.108;2023-05-02T10:33:37;7.22;;;2.70;;
28934;SDS011;16044;52.726;-2.108;2023-05-02T10:36:09;7.35;;;2.38;;
28934;SDS011;16044;52.726;-2.108;2023-05-02T10:38:40;7.88;;;2.58;;
28934;SDS011;16044;52.726;-2.108;2023-05-02T10:41:11;8.40;;;2.47;;
28934;SDS011;16044;52.726;-2.108;2023-05-02T10:43:45;9.35;;;2.55;;
28934;SDS011;16044;52.726;-2.108;2023-05-02T10:49:07;9.02;;;2.80;;
28934;SDS011;16044;52.726;-2.108;2023-05-02T10:51:39;7.78;;;2.60;;
28934;SDS011;16044;52.726;-2.108;2023-05-02T10:54:21;8.68;;;2.78;;
28934;SDS011;16044;52.726;-2.108;2023-05-02T10:59:29;6.13;;;2.55;;
28934;SDS011;16044;52.726;-2.108;2023-05-02T11:07:33;9.23;;;2.90;;
28934;SDS011;16044;52.726;-2.108;2023-05-02T11:12:56;10.10;;;2.85;;
28934;SDS011;16044;52.726;-2.108;2023-05-02T11:18:02;8.00;;;2.78;;
28934;SDS011;16044;52.726;-2.108;2023-05-02T11:20:35;6.85;;;2.70;;
28934;SDS011;16044;52.726;-2.108;2023-05-02T11:25:46;7.13;;;2.38;;
28934;SDS011;16044;52.726;-2.108;2023-05-02T11:33:56;8.65;;;2.35;;
28934;SDS011;16044;52.726;-2.108;2023-05-02T11:36:31;7.20;;;3.08;;
28934;SDS011;16044;52.726;-2.108;2023-05-02T11:39:03;7.88;;;2.90;;
28934;SDS011;16044;52.726;-2.108;2023-05-02T11:41:37;8.05;;;2.92;;
28934;SDS011;16044;52.726;-2.108;2023-05-02T11:44:09;8.60;;;3.17;;
28934;SDS011;16044;52.726;-2.108;2023-05-02T11:46:36;10.43;;;3.10;;
28934;SDS011;16044;52.726;-2.108;2023-05-02T11:49:05;9.00;;;2.50;;
28934;SDS011;16044;52.726;-2.108;2023-05-02T11:51:40;8.65;;;4.15;;
28934;SDS011;16044;52.726;-2.108;2023-05-02T11:54:07;9.50;;;3.55;;
28934;SDS011;16044;52.726;-2.108;2023-05-02T11:56:35;8.80;;;3.65;;
28934;SDS011;16044;52.726;-2.108;2023-05-02T11:59:03;8.10;;;3.45;;
28934;SDS011;16044;52.726;-2.108;2023-05-02T12:01:30;7.70;;;3.95;;
28934;SDS011;16044;52.726;-2.108;2023-05-02T12:04:03;9.77;;;3.22;;
28934;SDS011;16044;52.726;-2.108;2023-05-02T12:06:33;9.65;;;3.85;;
28934;SDS011;16044;52.726;-2.108;2023-05-02T12:09:12;10.38;;;3.95;;
28934;SDS011;16044;52.726;-2.108;2023-05-02T12:11:45;10.43;;;3.33;;
28934;SDS011;16044;52.726;-2.108;2023-05-02T12:14:25;7.53;;;3.65;;
28934;SDS011;16044;52.726;-2.108;2023-05-02T12:16:59;7.65;;;3.50;;
28934;SDS011;16044;52.726;-2.108;2023-05-02T12:19:26;8.90;;;3.58;;
28934;SDS011;16044;52.726;-2.108;2023-05-02T12:21:53;7.80;;;3.15;;
28934;SDS011;16044;52.726;-2.108;2023-05-02T12:24:20;10.98;;;3.63;;
28934;SDS011;16044;52.726;-2.108;2023-05-02T12:26:47;7.25;;;3.10;;
28934;SDS011;16044;52.726;-2.108;2023-05-02T12:29:17;7.13;;;3.25;;
28934;SDS011;16044;52.726;-2.108;2023-05-02T12:31:50;8.35;;;3.20;;
28934;SDS011;16044;52.726;-2.108;2023-05-02T12:34:36;6.45;;;2.92;;
28934;SDS011;16044;52.726;-2.108;2023-05-02T12:37:04;8.60;;;3.17;;
28934;SDS011;16044;52.726;-2.108;2023-05-02T12:39:42;7.60;;;2.90;;
28934;SDS011;16044;52.726;-2.108;2023-05-02T12:42:12;6.38;;;2.88;;
28934;SDS011;16044;52.726;-2.108;2023-05-02T12:44:43;7.43;;;3.13;;
28934;SDS011;16044;52.726;-2.108;2023-05-02T12:47:15;8.63;;;3.17;;
28934;SDS011;16044;52.726;-2.108;2023-05-02T12:49:49;8.18;;;3.47;;
28934;SDS011;16044;52.726;-2.108;2023-05-02T12:52:18;5.60;;;3.03;;
28934;SDS011;16044;52.726;-2.108;2023-05-02T12:54:47;8.75;;;3.28;;
28934;SDS011;16044;52.726;-2.108;2023-05-02T12:57:23;5.47;;;2.70;;
28934;SDS011;16044;52.726;-2.108;2023-05-02T12:59:52;9.35;;;3.05;;
28934;SDS011;16044;52.726;-2.108;2023-05-02T13:02:20;7.85;;;3.20;;
28934;SDS011;16044;52.726;-2.108;2023-05-02T13:04:48;7.72;;;3.33;;
28934;SDS011;16044;52.726;-2.108;2023-05-02T13:07:15;6.53;;;3.40;;
28934;SDS011;16044;52.726;-2.108;2023-05-02T13:09:42;7.15;;;3.22;;
28934;SDS011;16044;52.726;-2.108;2023-05-02T13:12:10;10.05;;;4.00;;
28934;SDS011;16044;52.726;-2.108;2023-05-02T13:14:37;7.82;;;3.40;;
28934;SDS011;16044;52.726;-2.108;2023-05-02T13:17:04;7.35;;;3.70;;
28934;SDS011;16044;52.726;-2.108;2023-05-02T13:19:34;10.68;;;4.00;;
28934;SDS011;16044;52.726;-2.108;2023-05-02T13:22:03;7.85;;;3.85;;
28934;SDS011;16044;52.726;-2.108;2023-05-02T13:24:30;8.18;;;3.67;;
28934;SDS011;16044;52.726;-2.108;2023-05-02T13:26:57;9.98;;;3.45;;
28934;SDS011;16044;52.726;-2.108;2023-05-02T13:29:24;10.20;;;3.70;;
28934;SDS011;16044;52.726;-2.108;2023-05-02T13:31:51;8.93;;;3.58;;
28934;SDS011;16044;52.726;-2.108;2023-05-02T13:34:18;9.80;;;4.28;;
28934;SDS011;16044;52.726;-2.108;2023-05-02T13:36:45;9.70;;;4.07;;
28934;SDS011;16044;52.726;-2.108;2023-05-02T13:39:12;9.25;;;3.97;;
28934;SDS011;16044;52.726;-2.108;2023-05-02T13:41:39;7.60;;;3.67;;
28934;SDS011;16044;52.726;-2.108;2023-05-02T13:44:07;7.72;;;3.50;;
28934;SDS011;16044;52.726;-2.108;2023-05-02T13:46:34;7.68;;;3.47;;
28934;SDS011;16044;52.726;-2.108;2023-05-02T13:49:03;8.73;;;3.65;;
28934;SDS011;16044;52.726;-2.108;2023-05-02T13:51:30;9.82;;;4.43;;
28934;SDS011;16044;52.726;-2.108;2023-05-02T13:53:58;8.05;;;4.50;;
28934;SDS011;16044;52.726;-2.108;2023-05-02T13:56:26;6.68;;;3.60;;
28934;SDS011;16044;52.726;-2.108;2023-05-02T13:58:53;8.20;;;3.63;;
28934;SDS011;16044;52.726;-2.108;2023-05-02T14:01:20;9.98;;;3.78;;
28934;SDS011;16044;52.726;-2.108;2023-05-02T14:03:47;10.90;;;3.75;;
28934;SDS011;16044;52.726;-2.108;2023-05-02T14:06:15;6.53;;;3.38;;
28934;SDS011;16044;52.726;-2.108;2023-05-02T14:08:42;11.45;;;3.67;;
28934;SDS011;16044;52.726;-2.108;2023-05-02T14:11:10;6.63;;;3.28;;
28934;SDS011;16044;52.726;-2.108;2023-05-02T14:13:37;7.40;;;3.70;;
28934;SDS011;16044;52.726;-2.108;2023-05-02T14:16:04;6.95;;;3.60;;
28934;SDS011;16044;52.726;-2.108;2023-05-02T14:18:31;7.68;;;3.38;;
28934;SDS011;16044;52.726;-2.108;2023-05-02T14:20:58;7.90;;;3.28;;
28934;SDS011;16044;52.726;-2.108;2023-05-02T14:23:25;7.18;;;3.00;;
28934;SDS011;16044;52.726;-2.108;2023-05-02T14:25:55;6.15;;;3.17;;
28934;SDS011;16044;52.726;-2.108;2023-05-02T14:28:22;10.40;;;3.15;;
28934;SDS011;16044;52.726;-2.108;2023-05-02T14:30:49;7.80;;;3.65;;
28934;SDS011;16044;52.726;-2.108;2023-05-02T14:33:16;6.80;;;3.55;;
28934;SDS011;16044;52.726;-2.108;2023-05-02T14:35:43;5.10;;;2.80;;
28934;SDS011;16044;52.726;-2.108;2023-05-02T14:38:11;7.20;;;3.50;;
28934;SDS011;16044;52.726;-2.108;2023-05-02T14:40:38;5.63;;;3.08;;
28934;SDS011;16044;52.726;-2.108;2023-05-02T14:43:04;9.38;;;3.08;;
28934;SDS011;16044;52.726;-2.108;2023-05-02T14:45:31;6.95;;;3.35;;
28934;SDS011;16044;52.726;-2.108;2023-05-02T14:47:58;7.03;;;3.08;;
28934;SDS011;16044;52.726;-2.108;2023-05-02T14:50:25;6.10;;;3.13;;
28934;SDS011;16044;52.726;-2.108;2023-05-02T14:52:53;7.03;;;3.50;;
28934;SDS011;16044;52.726;-2.108;2023-05-02T14:55:20;7.20;;;3.72;;
28934;SDS011;16044;52.726;-2.108;2023-05-02T14:57:47;8.07;;;3.80;;
28934;SDS011;16044;52.726;-2.108;2023-05-02T15:03:37;8.82;;;3.08;;
28934;SDS011;16044;52.726;-2.108;2023-05-02T15:06:27;6.70;;;2.92;;
28934;SDS011;16044;52.726;-2.108;2023-05-02T15:08:57;8.75;;;3.60;;
28934;SDS011;16044;52.726;-2.108;2023-05-02T15:11:23;8.30;;;3.42;;
28934;SDS011;16044;52.726;-2.108;2023-05-02T15:13:51;7.10;;;3.92;;
28934;SDS011;16044;52.726;-2.108;2023-05-02T15:16:17;11.13;;;3.45;;
28934;SDS011;16044;52.726;-2.108;2023-05-02T15:18:45;12.00;;;3.50;;
28934;SDS011;16044;52.726;-2.108;2023-05-02T15:21:11;8.88;;;3.00;;
28934;SDS011;16044;52.726;-2.108;2023-05-02T15:23:38;9.00;;;3.70;;
28934;SDS011;16044;52.726;-2.108;2023-05-02T15:26:05;8.80;;;3.35;;
28934;SDS011;16044;52.726;-2.108;2023-05-02T15:28:32;9.52;;;3.85;;
28934;SDS011;16044;52.726;-2.108;2023-05-02T15:30:59;9.18;;;3.83;;
28934;SDS011;16044;52.726;-2.108;2023-05-02T15:33:26;8.50;;;3.45;;
28934;SDS011;16044;52.726;-2.108;2023-05-02T15:35:55;9.98;;;3.50;;
28934;SDS011;16044;52.726;-2.108;2023-05-02T15:38:26;6.85;;;3.53;;
28934;SDS011;16044;52.726;-2.108;2023-05-02T15:40:53;8.93;;;3.70;;
28934;SDS011;16044;52.726;-2.108;2023-05-02T15:43:22;8.65;;;3.53;;
28934;SDS011;16044;52.726;-2.108;2023-05-02T15:45:50;10.82;;;3.70;;
28934;SDS011;16044;52.726;-2.108;2023-05-02T15:48:18;8.40;;;4.85;;
28934;SDS011;16044;52.726;-2.108;2023-05-02T15:50:46;8.50;;;3.42;;
28934;SDS011;16044;52.726;-2.108;2023-05-02T15:53:14;9.50;;;3.45;;
28934;SDS011;16044;52.726;-2.108;2023-05-02T15:55:42;11.13;;;3.97;;
28934;SDS011;16044;52.726;-2.108;2023-05-02T15:58:11;8.02;;;3.33;;
28934;SDS011;16044;52.726;-2.108;2023-05-02T16:00:39;13.02;;;4.15;;
28934;SDS011;16044;52.726;-2.108;2023-05-02T16:03:06;7.78;;;3.53;;
28934;SDS011;16044;52.726;-2.108;2023-05-02T16:05:33;6.30;;;3.40;;
28934;SDS011;16044;52.726;-2.108;2023-05-02T16:08:01;11.38;;;3.60;;
28934;SDS011;16044;52.726;-2.108;2023-05-02T16:10:28;5.78;;;3.00;;
28934;SDS011;16044;52.726;-2.108;2023-05-02T16:12:55;5.78;;;3.20;;
28934;SDS011;16044;52.726;-2.108;2023-05-02T16:15:23;7.68;;;3.08;;
28934;SDS011;16044;52.726;-2.108;2023-05-02T16:17:50;6.47;;;3.33;;
28934;SDS011;16044;52.726;-2.108;2023-05-02T16:20:17;6.93;;;3.75;;
28934;SDS011;16044;52.726;-2.108;2023-05-02T16:22:45;11.68;;;3.80;;
28934;SDS011;16044;52.726;-2.108;2023-05-02T16:25:13;7.88;;;3.60;;
28934;SDS011;16044;52.726;-2.108;2023-05-02T16:27:41;8.43;;;3.70;;
28934;SDS011;16044;52.726;-2.108;2023-05-02T21:13:36;13.43;;;6.03;;
28934;SDS011;16044;52.726;-2.108;2023-05-02T21:16:02;13.25;;;6.40;;
28934;SDS011;16044;52.726;-2.108;2023-05-02T21:18:30;16.08;;;6.68;;
28934;SDS011;16044;52.726;-2.108;2023-05-02T21:20:56;17.60;;;5.90;;
28934;SDS011;16044;52.726;-2.108;2023-05-02T21:23:23;16.67;;;7.00;;
28934;SDS011;16044;52.726;-2.108;2023-05-02T21:25:51;14.10;;;6.20;;
28934;SDS011;16044;52.726;-2.108;2023-05-02T21:28:18;14.13;;;6.38;;
28934;SDS011;16044;52.726;-2.108;2023-05-02T21:30:45;14.30;;;6.63;;
28934;SDS011;16044;52.726;-2.108;2023-05-02T21:33:12;15.68;;;6.70;;
28934;SDS011;16044;52.726;-2.108;2023-05-02T21:35:43;15.43;;;6.05;;
28934;SDS011;16044;52.726;-2.108;2023-05-02T21:38:10;15.13;;;6.47;;
28934;SDS011;16044;52.726;-2.108;2023-05-02T21:40:37;17.77;;;6.15;;
28934;SDS011;16044;52.726;-2.108;2023-05-02T21:43:04;15.48;;;5.95;;
28934;SDS011;16044;52.726;-2.108;2023-05-02T21:45:31;12.07;;;6.30;;
28934;SDS011;16044;52.726;-2.108;2023-05-02T21:47:58;18.85;;;6.38;;
28934;SDS011;16044;52.726;-2.108;2023-05-02T21:50:26;16.40;;;6.32;;
28934;SDS011;16044;52.726;-2.108;2023-05-02T21:52:54;12.40;;;6.18;;
28934;SDS011;16044;52.726;-2.108;2023-05-02T21:55:22;14.25;;;6.05;;
28934;SDS011;16044;52.726;-2.108;2023-05-02T21:57:48;13.75;;;6.35;;
28934;SDS011;16044;52.726;-2.108;2023-05-02T22:00:16;13.77;;;5.53;;
28934;SDS011;16044;52.726;-2.108;2023-05-02T22:02:43;16.75;;;6.50;;
28934;SDS011;16044;52.726;-2.108;2023-05-02T22:05:10;17.15;;;6.18;;
28934;SDS011;16044;52.726;-2.108;2023-05-02T22:07:39;16.08;;;6.40;;
28934;SDS011;16044;52.726;-2.108;2023-05-02T22:10:06;19.73;;;6.65;;
28934;SDS011;16044;52.726;-2.108;2023-05-02T22:12:33;10.52;;;6.00;;
28934;SDS011;16044;52.726;-2.108;2023-05-02T22:15:00;12.75;;;6.60;;
28934;SDS011;16044;52.726;-2.108;2023-05-02T22:17:32;19.00;;;6.50;;
28934;SDS011;16044;52.726;-2.108;2023-05-02T22:19:59;25.63;;;6.72;;
28934;SDS011;16044;52.726;-2.108;2023-05-02T22:22:28;15.93;;;6.45;;
28934;SDS011;16044;52.726;-2.108;2023-05-02T22:24:55;15.95;;;6.50;;
28934;SDS011;16044;52.726;-2.108;2023-05-02T22:27:22;19.30;;;7.20;;
28934;SDS011;16044;52.726;-2.108;2023-05-02T22:29:49;16.52;;;7.32;;
28934;SDS011;16044;52.726;-2.108;2023-05-02T22:32:15;21.10;;;7.32;;
28934;SDS011;16044;52.726;-2.108;2023-05-02T22:34:42;16.00;;;6.72;;
28934;SDS011;16044;52.726;-2.108;2023-05-02T22:37:09;17.23;;;6.75;;
28934;SDS011;16044;52.726;-2.108;2023-05-02T22:39:38;15.23;;;6.65;;
28934;SDS011;16044;52.726;-2.108;2023-05-02T22:42:05;16.58;;;6.82;;
28934;SDS011;16044;52.726;-2.108;2023-05-02T22:44:32;15.40;;;6.97;;
28934;SDS011;16044;52.726;-2.108;2023-05-02T22:47:08;20.83;;;7.60;;
28934;SDS011;16044;52.726;-2.108;2023-05-02T22:49:36;15.52;;;6.57;;
28934;SDS011;16044;52.726;-2.108;2023-05-02T22:52:03;23.70;;;8.55;;
28934;SDS011;16044;52.726;-2.108;2023-05-02T22:54:30;16.70;;;7.40;;
28934;SDS011;16044;52.726;-2.108;2023-05-02T22:56:57;17.55;;;7.78;;
28934;SDS011;16044;52.726;-2.108;2023-05-02T22:59:24;19.92;;;7.82;;
28934;SDS011;16044;52.726;-2.108;2023-05-02T23:01:52;17.88;;;7.93;;
28934;SDS011;16044;52.726;-2.108;2023-05-02T23:04:19;16.88;;;7.63;;
28934;SDS011;16044;52.726;-2.108;2023-05-02T23:06:47;19.83;;;6.95;;
28934;SDS011;16044;52.726;-2.108;2023-05-02T23:09:16;23.08;;;7.38;;
28934;SDS011;16044;52.726;-2.108;2023-05-02T23:11:43;15.73;;;7.90;;
28934;SDS011;16044;52.726;-2.108;2023-05-02T23:14:10;18.23;;;7.80;;
28934;SDS011;16044;52.726;-2.108;2023-05-02T23:16:37;18.48;;;8.07;;
28934;SDS011;16044;52.726;-2.108;2023-05-02T23:19:04;19.90;;;8.23;;
28934;SDS011;16044;52.726;-2.108;2023-05-02T23:21:31;17.88;;;7.75;;
28934;SDS011;16044;52.726;-2.108;2023-05-02T23:23:58;20.00;;;8.30;;
28934;SDS011;16044;52.726;-2.108;2023-05-02T23:26:25;13.18;;;6.88;;
28934;SDS011;16044;52.726;-2.108;2023-05-02T23:28:52;22.98;;;8.32;;
28934;SDS011;16044;52.726;-2.108;2023-05-02T23:31:19;21.42;;;8.77;;